Open Full Screen Window  High Contrast Mode
Wind Gusting 00 knots
06
September 25, 2018 11:52 AM EDT
Weather Information
Wind Direction
  210 °
Wind Speed
  06 kt (7 mph)
Wind Gust
  00 kt (0 mph)
Altimeter
30.08 in
Visibility
10 SM
Temperature
23° C
73° F
Dewpoint
21° C
70° F
Humidity
89%
1hr Rain Fall
00.00 in.
24hr Rain Fall
00.88 in.
Sky Condition
Overcast @ 2,100 ft
Broken @ 1,300 ft
MVFR

METAR KI69 251552Z AUTO 21006KT 10SM BKN013 OVC021 23/21 A3008 RMK AO2 T02300211

FAA Disclaimer: The data displayed is for advisory purposes only and is not to be used for flight planning or operations.